Bartlett, Texas
Current Conditions -  °F | °C
As of 6:58 AM on Thursday 30 Oct 2014 (Local Time) from KGRK Reporting Station
Broken Clouds Broken Clouds  
Wind Chill: 60°   Ceiling: 4200
Heat Index: 60°   Visibility: 10mi
Dew Point: 55°   Wind: 7mph
Humidity: 84%   Direction: 170°S
Pressure: 30.12"   Gusts: NA
Location:  30.79°N, 97.43°W
Report Text: KGRK 301158Z AUTO 17006KT 10SM SCT017 BKN042 15/13 A3012 RMK AO2 CIG 018 RWY33 SLP194 T01540127 10171 20150 55000
Loading
Personal Weather Stations






























Interactive Weather Map
Tropical Storm Tracking
New forecast layout! Learn more

10-Day Weather Forecast

Advertisements
Track Severe Weather on mobile